sensor_id;sensor_type;location;lat;lon;timestamp;pressure;altitude;pressure_sealevel;temperature;humidity
45941;BME280;31858;46.008;8.978;2024-02-28T00:09:13;94163.28;;;5.24;100.00
45941;BME280;31858;46.008;8.978;2024-02-28T00:19:14;94179.75;;;5.17;100.00
45941;BME280;31858;46.008;8.978;2024-02-28T00:29:19;94175.28;;;5.21;100.00
45941;BME280;31858;46.008;8.978;2024-02-28T00:39:20;94189.06;;;5.11;100.00
45941;BME280;31858;46.008;8.978;2024-02-28T00:49:23;94197.53;;;5.20;100.00
45941;BME280;31858;46.008;8.978;2024-02-28T00:59:25;94198.03;;;5.26;100.00
45941;BME280;31858;46.008;8.978;2024-02-28T01:09:28;94215.91;;;5.13;100.00
45941;BME280;31858;46.008;8.978;2024-02-28T01:19:29;94240.34;;;5.10;100.00
45941;BME280;31858;46.008;8.978;2024-02-28T01:29:33;94245.72;;;5.14;100.00
45941;BME280;31858;46.008;8.978;2024-02-28T01:39:34;94240.34;;;5.10;100.00
45941;BME280;31858;46.008;8.978;2024-02-28T01:49:37;94243.56;;;5.19;100.00
45941;BME280;31858;46.008;8.978;2024-02-28T01:59:39;94252.78;;;5.45;100.00
45941;BME280;31858;46.008;8.978;2024-02-28T02:09:43;94274.91;;;5.21;100.00
45941;BME280;31858;46.008;8.978;2024-02-28T02:19:45;94275.13;;;5.47;100.00
45941;BME280;31858;46.008;8.978;2024-02-28T02:29:48;94263.63;;;5.75;100.00
45941;BME280;31858;46.008;8.978;2024-02-28T02:39:50;94269.72;;;5.60;100.00
45941;BME280;31858;46.008;8.978;2024-02-28T02:49:54;94272.31;;;5.75;100.00
45941;BME280;31858;46.008;8.978;2024-02-28T02:59:55;94289.47;;;5.66;100.00
45941;BME280;31858;46.008;8.978;2024-02-28T03:09:58;94300.69;;;5.43;100.00
45941;BME280;31858;46.008;8.978;2024-02-28T03:20:00;94299.41;;;5.53;100.00
45941;BME280;31858;46.008;8.978;2024-02-28T03:30:04;94309.06;;;5.80;100.00
45941;BME280;31858;46.008;8.978;2024-02-28T03:40:07;94316.38;;;5.87;100.00
45941;BME280;31858;46.008;8.978;2024-02-28T03:50:10;94319.75;;;5.68;100.00
45941;BME280;31858;46.008;8.978;2024-02-28T04:00:12;94320.19;;;5.54;100.00
45941;BME280;31858;46.008;8.978;2024-02-28T04:10:17;94330.19;;;5.45;100.00
45941;BME280;31858;46.008;8.978;2024-02-28T04:20:18;94320.53;;;5.53;100.00
45941;BME280;31858;46.008;8.978;2024-02-28T04:30:21;94331.63;;;5.43;100.00
45941;BME280;31858;46.008;8.978;2024-02-28T04:40:23;94347.16;;;5.29;100.00
45941;BME280;31858;46.008;8.978;2024-02-28T04:50:26;94360.78;;;5.31;100.00
45941;BME280;31858;46.008;8.978;2024-02-28T05:00:28;94381.41;;;5.25;100.00
45941;BME280;31858;46.008;8.978;2024-02-28T05:10:30;94391.84;;;5.18;100.00
45941;BME280;31858;46.008;8.978;2024-02-28T05:20:34;94409.78;;;5.28;100.00
45941;BME280;31858;46.008;8.978;2024-02-28T05:30:37;94424.19;;;5.46;100.00
45941;BME280;31858;46.008;8.978;2024-02-28T05:40:38;94433.66;;;5.47;100.00
45941;BME280;31858;46.008;8.978;2024-02-28T05:50:43;94455.41;;;5.72;100.00
45941;BME280;31858;46.008;8.978;2024-02-28T06:00:45;94461.56;;;5.76;100.00
45941;BME280;31858;46.008;8.978;2024-02-28T06:10:49;94476.22;;;5.74;100.00
45941;BME280;31858;46.008;8.978;2024-02-28T06:20:52;94482.03;;;5.79;100.00
45941;BME280;31858;46.008;8.978;2024-02-28T06:30:56;94489.13;;;5.91;100.00
45941;BME280;31858;46.008;8.978;2024-02-28T06:40:57;94497.75;;;6.04;100.00
45941;BME280;31858;46.008;8.978;2024-02-28T06:51:00;94500.03;;;5.89;100.00
45941;BME280;31858;46.008;8.978;2024-02-28T07:01:03;94509.31;;;5.83;100.00
45941;BME280;31858;46.008;8.978;2024-02-28T07:11:13;94517.19;;;6.11;100.00
45941;BME280;31858;46.008;8.978;2024-02-28T07:21:14;94521.03;;;5.98;100.00
45941;BME280;31858;46.008;8.978;2024-02-28T07:31:18;94527.50;;;6.16;100.00
45941;BME280;31858;46.008;8.978;2024-02-28T07:41:19;94532.72;;;5.97;100.00
45941;BME280;31858;46.008;8.978;2024-02-28T07:51:22;94536.38;;;6.08;100.00
45941;BME280;31858;46.008;8.978;2024-02-28T08:01:24;94543.63;;;5.96;100.00
45941;BME280;31858;46.008;8.978;2024-02-28T08:11:27;94555.25;;;6.07;100.00
45941;BME280;31858;46.008;8.978;2024-02-28T08:21:28;94576.22;;;6.00;100.00
45941;BME280;31858;46.008;8.978;2024-02-28T08:31:31;94601.94;;;6.15;100.00
45941;BME280;31858;46.008;8.978;2024-02-28T08:41:34;94609.00;;;6.11;100.00
45941;BME280;31858;46.008;8.978;2024-02-28T08:51:37;94625.16;;;6.21;100.00
45941;BME280;31858;46.008;8.978;2024-02-28T09:01:38;94635.13;;;6.28;100.00
45941;BME280;31858;46.008;8.978;2024-02-28T09:11:43;94645.22;;;6.38;100.00
45941;BME280;31858;46.008;8.978;2024-02-28T09:21:44;94653.16;;;6.38;100.00
45941;BME280;31858;46.008;8.978;2024-02-28T09:31:49;94664.16;;;6.56;100.00
45941;BME280;31858;46.008;8.978;2024-02-28T09:41:50;94667.81;;;6.67;100.00
45941;BME280;31858;46.008;8.978;2024-02-28T09:51:54;94679.69;;;6.89;100.00
45941;BME280;31858;46.008;8.978;2024-02-28T10:01:59;94678.69;;;7.13;100.00
45941;BME280;31858;46.008;8.978;2024-02-28T10:12:04;94681.13;;;7.37;100.00
45941;BME280;31858;46.008;8.978;2024-02-28T10:22:06;94687.63;;;7.40;100.00
45941;BME280;31858;46.008;8.978;2024-02-28T10:32:09;94692.38;;;7.50;100.00
45941;BME280;31858;46.008;8.978;2024-02-28T10:42:12;94706.69;;;7.65;100.00
45941;BME280;31858;46.008;8.978;2024-02-28T10:52:19;94709.84;;;7.70;100.00
45941;BME280;31858;46.008;8.978;2024-02-28T11:02:23;94712.81;;;7.88;100.00
45941;BME280;31858;46.008;8.978;2024-02-28T11:12:28;94702.56;;;7.86;100.00
45941;BME280;31858;46.008;8.978;2024-02-28T11:22:31;94698.84;;;8.10;100.00
45941;BME280;31858;46.008;8.978;2024-02-28T11:32:36;94698.88;;;8.53;100.00
45941;BME280;31858;46.008;8.978;2024-02-28T11:42:38;94694.34;;;8.76;100.00
45941;BME280;31858;46.008;8.978;2024-02-28T11:52:40;94687.31;;;9.13;100.00
45941;BME280;31858;46.008;8.978;2024-02-28T12:02:42;94676.81;;;9.51;100.00
45941;BME280;31858;46.008;8.978;2024-02-28T12:12:45;94662.88;;;9.61;100.00
45941;BME280;31858;46.008;8.978;2024-02-28T12:22:48;94634.72;;;9.90;100.00
45941;BME280;31858;46.008;8.978;2024-02-28T12:32:51;94592.91;;;10.27;100.00
45941;BME280;31858;46.008;8.978;2024-02-28T12:42:53;94551.88;;;10.35;100.00
45941;BME280;31858;46.008;8.978;2024-02-28T12:52:56;94532.66;;;10.63;100.00
45941;BME280;31858;46.008;8.978;2024-02-28T13:02:57;94527.69;;;10.62;100.00
45941;BME280;31858;46.008;8.978;2024-02-28T13:13:00;94520.72;;;10.39;100.00
45941;BME280;31858;46.008;8.978;2024-02-28T13:23:03;94516.31;;;10.13;100.00
45941;BME280;31858;46.008;8.978;2024-02-28T13:33:06;94510.09;;;9.99;100.00
45941;BME280;31858;46.008;8.978;2024-02-28T13:43:08;94513.00;;;10.24;100.00
45941;BME280;31858;46.008;8.978;2024-02-28T13:53:11;94510.44;;;10.45;100.00
45941;BME280;31858;46.008;8.978;2024-02-28T14:03:13;94494.16;;;10.54;100.00
45941;BME280;31858;46.008;8.978;2024-02-28T14:13:17;94485.00;;;10.55;100.00
45941;BME280;31858;46.008;8.978;2024-02-28T14:23:19;94482.50;;;10.83;100.00
45941;BME280;31858;46.008;8.978;2024-02-28T14:33:22;94480.00;;;11.22;100.00
45941;BME280;31858;46.008;8.978;2024-02-28T14:43:24;94475.13;;;11.46;100.00
45941;BME280;31858;46.008;8.978;2024-02-28T14:53:28;94474.75;;;11.47;100.00
45941;BME280;31858;46.008;8.978;2024-02-28T15:03:30;94475.16;;;11.56;100.00
45941;BME280;31858;46.008;8.978;2024-02-28T15:13:33;94479.34;;;11.61;100.00
45941;BME280;31858;46.008;8.978;2024-02-28T15:23:34;94472.13;;;11.75;100.00
45941;BME280;31858;46.008;8.978;2024-02-28T15:33:37;94476.72;;;11.82;100.00
45941;BME280;31858;46.008;8.978;2024-02-28T15:43:39;94491.22;;;11.85;100.00
45941;BME280;31858;46.008;8.978;2024-02-28T15:53:42;94486.59;;;11.74;100.00
45941;BME280;31858;46.008;8.978;2024-02-28T16:03:44;94491.94;;;11.60;100.00
45941;BME280;31858;46.008;8.978;2024-02-28T16:13:47;94497.59;;;11.41;100.00
45941;BME280;31858;46.008;8.978;2024-02-28T16:23:49;94502.47;;;11.14;100.00
45941;BME280;31858;46.008;8.978;2024-02-28T16:33:52;94502.72;;;10.88;100.00
45941;BME280;31858;46.008;8.978;2024-02-28T16:43:54;94515.31;;;10.94;100.00
45941;BME280;31858;46.008;8.978;2024-02-28T16:54:00;94532.63;;;10.60;100.00
45941;BME280;31858;46.008;8.978;2024-02-28T17:04:02;94551.75;;;10.76;100.00
45941;BME280;31858;46.008;8.978;2024-02-28T17:14:04;94564.84;;;10.40;100.00
45941;BME280;31858;46.008;8.978;2024-02-28T17:24:06;94580.22;;;10.17;100.00
45941;BME280;31858;46.008;8.978;2024-02-28T17:34:09;94583.88;;;10.02;100.00
45941;BME280;31858;46.008;8.978;2024-02-28T17:44:11;94603.09;;;9.85;100.00
45941;BME280;31858;46.008;8.978;2024-02-28T17:54:14;94625.75;;;9.71;100.00
45941;BME280;31858;46.008;8.978;2024-02-28T18:04:16;94647.31;;;9.63;100.00
45941;BME280;31858;46.008;8.978;2024-02-28T18:14:19;94670.81;;;9.57;100.00
45941;BME280;31858;46.008;8.978;2024-02-28T18:24:23;94688.94;;;9.48;100.00
45941;BME280;31858;46.008;8.978;2024-02-28T18:34:26;94688.44;;;9.39;100.00
45941;BME280;31858;46.008;8.978;2024-02-28T18:44:27;94699.38;;;9.34;100.00
45941;BME280;31858;46.008;8.978;2024-02-28T18:54:30;94690.59;;;9.30;100.00
45941;BME280;31858;46.008;8.978;2024-02-28T19:04:32;94686.59;;;9.43;100.00
45941;BME280;31858;46.008;8.978;2024-02-28T19:14:36;94687.94;;;9.30;100.00
45941;BME280;31858;46.008;8.978;2024-02-28T19:24:38;94703.19;;;9.06;100.00
45941;BME280;31858;46.008;8.978;2024-02-28T19:34:41;94691.50;;;9.14;100.00
45941;BME280;31858;46.008;8.978;2024-02-28T19:44:43;94712.00;;;9.14;100.00
45941;BME280;31858;46.008;8.978;2024-02-28T19:54:47;94713.59;;;9.19;100.00
45941;BME280;31858;46.008;8.978;2024-02-28T20:04:48;94716.97;;;9.15;100.00
45941;BME280;31858;46.008;8.978;2024-02-28T20:14:51;94724.22;;;9.19;100.00
45941;BME280;31858;46.008;8.978;2024-02-28T20:24:56;94731.13;;;9.23;100.00
45941;BME280;31858;46.008;8.978;2024-02-28T20:34:59;94736.69;;;9.14;100.00
45941;BME280;31858;46.008;8.978;2024-02-28T20:45:01;94740.06;;;9.11;100.00
45941;BME280;31858;46.008;8.978;2024-02-28T20:55:07;94750.75;;;9.15;100.00
45941;BME280;31858;46.008;8.978;2024-02-28T21:05:08;94743.91;;;9.14;100.00
45941;BME280;31858;46.008;8.978;2024-02-28T21:15:12;94742.34;;;9.09;100.00
45941;BME280;31858;46.008;8.978;2024-02-28T21:25:14;94739.16;;;9.00;100.00
45941;BME280;31858;46.008;8.978;2024-02-28T21:35:18;94736.78;;;8.95;100.00
45941;BME280;31858;46.008;8.978;2024-02-28T21:45:19;94725.47;;;8.75;100.00
45941;BME280;31858;46.008;8.978;2024-02-28T21:55:22;94719.63;;;8.66;100.00
45941;BME280;31858;46.008;8.978;2024-02-28T22:05:24;94735.72;;;8.54;100.00
45941;BME280;31858;46.008;8.978;2024-02-28T22:15:27;94723.22;;;8.55;100.00
45941;BME280;31858;46.008;8.978;2024-02-28T22:25:29;94722.13;;;8.36;100.00
45941;BME280;31858;46.008;8.978;2024-02-28T22:35:32;94704.03;;;8.65;100.00
45941;BME280;31858;46.008;8.978;2024-02-28T22:45:33;94697.94;;;8.64;100.00
45941;BME280;31858;46.008;8.978;2024-02-28T22:55:36;94695.22;;;8.61;100.00
45941;BME280;31858;46.008;8.978;2024-02-28T23:05:38;94709.63;;;8.37;100.00
45941;BME280;31858;46.008;8.978;2024-02-28T23:15:41;94709.38;;;8.45;100.00
45941;BME280;31858;46.008;8.978;2024-02-28T23:25:43;94722.44;;;8.54;100.00
45941;BME280;31858;46.008;8.978;2024-02-28T23:35:46;94718.00;;;8.19;100.00
45941;BME280;31858;46.008;8.978;2024-02-28T23:45:47;94725.47;;;8.33;100.00
45941;BME280;31858;46.008;8.978;2024-02-28T23:55:50;94720.44;;;8.28;100.00
